Time;durP1;ratioP1;P1;durP2;ratioP2;P2;SDS_P1;SDS_P2;PMS_P1;PMS_P2;Temp;Humidity;BMP_temperature;BMP_pressure;BME280_temperature;BME280_humidity;BME280_pressure;Samples;Min_cycle;Max_cycle;Signal;HPM_P1;HPM_P2
2022/05/06 00:02:11;;;;;;;10.35;6.43;;;;;;;;;;4939205;29;20091;-74
2022/05/06 00:04:39;;;;;;;9.27;6.93;;;;;;;;;;4939522;29;20046;-74
2022/05/06 00:07:13;;;;;;;10.82;7.60;;;;;;;;;;4939634;29;20039;-74
2022/05/06 00:09:45;;;;;;;9.35;7.00;;;;;;;;;;4939130;29;20511;-74
2022/05/06 00:12:23;;;;;;;10.25;7.32;;;;;;;;;;4939350;29;20127;-75
2022/05/06 00:15:18;;;;;;;11.30;7.88;;;;;;;;;;4938909;29;20046;-75
2022/05/06 00:18:10;;;;;;;11.57;7.47;;;;;;;;;;4938909;29;20056;-74
2022/05/06 00:20:38;;;;;;;11.25;7.18;;;;;;;;;;4939011;29;20443;-75
2022/05/06 00:23:08;;;;;;;9.85;7.25;;;;;;;;;;4938912;29;20403;-74
2022/05/06 00:25:37;;;;;;;10.48;6.82;;;;;;;;;;4939003;29;20479;-74
2022/05/06 00:28:07;;;;;;;11.43;7.10;;;;;;;;;;4938818;29;20047;-74
2022/05/06 00:30:38;;;;;;;11.27;7.55;;;;;;;;;;4938928;29;20067;-74
2022/05/06 00:33:09;;;;;;;10.02;7.45;;;;;;;;;;4938824;29;20131;-74
2022/05/06 00:35:37;;;;;;;12.32;7.65;;;;;;;;;;4938931;29;20044;-74
2022/05/06 00:38:05;;;;;;;12.85;8.00;;;;;;;;;;4938495;29;20058;-74
2022/05/06 00:40:33;;;;;;;11.38;7.70;;;;;;;;;;4938834;29;20491;-74
2022/05/06 00:43:01;;;;;;;9.98;7.45;;;;;;;;;;4921181;29;20047;-74
2022/05/06 00:45:36;;;;;;;12.07;7.63;;;;;;;;;;4938576;29;20114;-74
2022/05/06 00:48:07;;;;;;;10.93;7.57;;;;;;;;;;4921525;29;20162;-74
2022/05/06 00:50:38;;;;;;;11.98;7.45;;;;;;;;;;4938841;29;20135;-74
2022/05/06 00:53:07;;;;;;;11.25;7.43;;;;;;;;;;4921497;29;20051;-74
2022/05/06 00:55:38;;;;;;;9.73;7.65;;;;;;;;;;4921316;29;20072;-74
2022/05/06 00:58:06;;;;;;;11.95;7.45;;;;;;;;;;4937770;29;20138;-75
2022/05/06 01:00:35;;;;;;;11.52;7.10;;;;;;;;;;4938452;29;20050;-75
2022/05/06 01:03:03;;;;;;;8.68;7.15;;;;;;;;;;4921424;29;20068;-75
2022/05/06 01:05:57;;;;;;;11.73;7.80;;;;;;;;;;4921053;29;20036;-75
2022/05/06 01:12:11;;;;;;;9.98;7.50;;;;;;;;;;4921096;29;20461;-75
2022/05/06 01:14:41;;;;;;;11.85;7.53;;;;;;;;;;4920978;29;20166;-75
2022/05/06 01:17:22;;;;;;;11.70;7.60;;;;;;;;;;4920781;29;20510;-75
2022/05/06 01:19:49;;;;;;;13.40;7.63;;;;;;;;;;4938088;29;20050;-75
2022/05/06 01:22:18;;;;;;;9.25;7.47;;;;;;;;;;4937996;29;20036;-74
2022/05/06 01:24:46;;;;;;;11.82;7.78;;;;;;;;;;4937538;29;20067;-74
2022/05/06 01:27:17;;;;;;;13.30;8.35;;;;;;;;;;4920961;29;20052;-75
2022/05/06 01:29:46;;;;;;;13.93;8.73;;;;;;;;;;4937653;29;20047;-75
2022/05/06 01:32:17;;;;;;;11.27;8.20;;;;;;;;;;4937901;29;20047;-75
2022/05/06 01:34:47;;;;;;;11.75;8.18;;;;;;;;;;4937902;29;20055;-74
2022/05/06 01:37:18;;;;;;;12.80;8.40;;;;;;;;;;4920586;29;20087;-74
2022/05/06 01:40:05;;;;;;;12.98;8.98;;;;;;;;;;4920534;29;20103;-75
2022/05/06 01:42:38;;;;;;;15.63;9.13;;;;;;;;;;4919657;29;20040;-75
2022/05/06 01:48:21;;;;;;;10.98;7.68;;;;;;;;;;4937135;29;20054;-74
2022/05/06 01:50:58;;;;;;;17.48;8.63;;;;;;;;;;4920246;29;20063;-74
2022/05/06 01:53:31;;;;;;;14.70;8.60;;;;;;;;;;4937279;29;20047;-74
2022/05/06 01:56:02;;;;;;;13.35;8.50;;;;;;;;;;4936706;29;20051;-75
2022/05/06 01:58:36;;;;;;;10.35;8.32;;;;;;;;;;4920481;29;20068;-74
2022/05/06 02:01:08;;;;;;;12.15;8.43;;;;;;;;;;4920244;29;20047;-74
2022/05/06 02:06:29;;;;;;;11.93;7.32;;;;;;;;;;4920232;29;20422;-75
2022/05/06 02:09:07;;;;;;;9.15;7.30;;;;;;;;;;4920154;29;20099;-74
2022/05/06 02:11:55;;;;;;;13.02;7.25;;;;;;;;;;4920059;29;20048;-74
2022/05/06 02:14:35;;;;;;;10.93;6.68;;;;;;;;;;4919863;29;20099;-74
2022/05/06 02:17:21;;;;;;;13.43;7.03;;;;;;;;;;4936667;29;20054;-74
2022/05/06 02:20:01;;;;;;;13.50;7.70;;;;;;;;;;4920004;29;20511;-74
2022/05/06 02:22:38;;;;;;;11.55;7.85;;;;;;;;;;4919992;29;20115;-74
2022/05/06 02:25:26;;;;;;;10.43;7.65;;;;;;;;;;4907082;29;20052;-74
2022/05/06 02:28:09;;;;;;;12.05;7.13;;;;;;;;;;4919642;29;20047;-74
2022/05/06 02:33:31;;;;;;;13.02;7.90;;;;;;;;;;4919273;29;20052;-74
2022/05/06 02:36:15;;;;;;;11.48;8.00;;;;;;;;;;4919452;29;20048;-75
2022/05/06 02:38:43;;;;;;;12.25;7.50;;;;;;;;;;4920054;29;20047;-75
2022/05/06 02:44:50;;;;;;;12.40;7.68;;;;;;;;;;4919545;29;20024;-74
2022/05/06 02:51:45;;;;;;;13.18;7.57;;;;;;;;;;4936252;29;20097;-74
2022/05/06 02:54:38;;;;;;;11.38;7.00;;;;;;;;;;4936412;29;20376;-74
2022/05/06 02:57:52;;;;;;;12.15;7.50;;;;;;;;;;4918630;29;20052;-74
2022/05/06 03:00:46;;;;;;;12.07;7.82;;;;;;;;;;4935064;29;20044;-74
2022/05/06 03:03:14;;;;;;;14.50;8.52;;;;;;;;;;4918070;29;20050;-74
2022/05/06 03:06:02;;;;;;;12.70;8.95;;;;;;;;;;4936012;29;20123;-74
2022/05/06 03:08:29;;;;;;;18.88;8.77;;;;;;;;;;4936190;29;20054;-74
2022/05/06 03:11:08;;;;;;;13.13;9.00;;;;;;;;;;4918879;29;20110;-73
2022/05/06 03:13:48;;;;;;;13.95;8.77;;;;;;;;;;4919111;29;20048;-74
2022/05/06 03:16:19;;;;;;;12.85;8.82;;;;;;;;;;4915397;29;20419;-74
2022/05/06 03:19:21;;;;;;;15.18;9.52;;;;;;;;;;4915980;29;20040;-74
2022/05/06 03:21:54;;;;;;;15.68;8.95;;;;;;;;;;4916736;29;20115;-73
2022/05/06 03:24:32;;;;;;;13.45;8.75;;;;;;;;;;4916684;29;20104;-74
2022/05/06 03:26:59;;;;;;;13.45;8.20;;;;;;;;;;4915951;29;20119;-74
2022/05/06 03:29:27;;;;;;;12.90;8.77;;;;;;;;;;4915982;29;20044;-74
2022/05/06 03:32:06;;;;;;;11.60;8.95;;;;;;;;;;4915530;29;20054;-74
2022/05/06 03:34:35;;;;;;;14.50;8.82;;;;;;;;;;4915636;29;20400;-73
2022/05/06 03:37:41;;;;;;;16.50;9.40;;;;;;;;;;4920031;29;20072;-73
2022/05/06 03:40:11;;;;;;;18.67;8.68;;;;;;;;;;4915666;29;20068;-74
2022/05/06 03:42:44;;;;;;;14.27;8.85;;;;;;;;;;4915488;29;20504;-74
2022/05/06 03:45:13;;;;;;;12.52;8.73;;;;;;;;;;4915742;29;20416;-74
2022/05/06 03:47:49;;;;;;;37.78;17.73;;;;;;;;;;4915734;29;20385;-73
2022/05/06 03:53:06;;;;;;;14.55;8.68;;;;;;;;;;4916704;29;20052;-73
2022/05/06 03:55:35;;;;;;;15.45;8.77;;;;;;;;;;4915442;29;20090;-73
2022/05/06 03:58:06;;;;;;;11.40;8.25;;;;;;;;;;4915620;29;20087;-72
2022/05/06 04:00:40;;;;;;;17.67;8.00;;;;;;;;;;4915559;29;20059;-73
2022/05/06 04:03:11;;;;;;;13.13;8.43;;;;;;;;;;4915579;29;20055;-72
2022/05/06 04:05:39;;;;;;;16.10;8.95;;;;;;;;;;4915353;29;20052;-73
2022/05/06 04:08:09;;;;;;;14.73;8.80;;;;;;;;;;4915368;29;20044;-73
2022/05/06 04:10:42;;;;;;;17.65;8.50;;;;;;;;;;4915700;29;20147;-73
2022/05/06 04:13:12;;;;;;;12.00;8.20;;;;;;;;;;4916668;29;20504;-72
2022/05/06 04:15:40;;;;;;;13.02;8.88;;;;;;;;;;4916808;29;20044;-72
2022/05/06 04:18:13;;;;;;;16.85;8.70;;;;;;;;;;4918370;29;20134;-75
2022/05/06 04:23:35;;;;;;;15.77;9.13;;;;;;;;;;4921905;29;20051;-75
2022/05/06 04:26:18;;;;;;;16.70;8.48;;;;;;;;;;4921932;29;20451;-75
2022/05/06 04:28:55;;;;;;;20.73;8.75;;;;;;;;;;4921213;29;20043;-75
2022/05/06 04:31:23;;;;;;;16.55;9.13;;;;;;;;;;4920828;29;20134;-75
2022/05/06 04:33:56;;;;;;;13.05;8.60;;;;;;;;;;4921056;29;20078;-75
2022/05/06 04:36:31;;;;;;;13.95;8.52;;;;;;;;;;4937374;29;20392;-75
2022/05/06 04:39:04;;;;;;;15.60;9.05;;;;;;;;;;4921324;29;20055;-75
2022/05/06 04:41:38;;;;;;;18.02;8.80;;;;;;;;;;4921492;29;20462;-75
2022/05/06 04:44:12;;;;;;;14.30;8.45;;;;;;;;;;4921522;29;20043;-75
2022/05/06 04:49:40;;;;;;;11.05;7.50;;;;;;;;;;4920980;29;20048;-76
2022/05/06 04:52:10;;;;;;;13.82;8.45;;;;;;;;;;4937172;29;20066;-75
2022/05/06 04:54:41;;;;;;;11.90;7.85;;;;;;;;;;4921646;29;20104;-75
2022/05/06 04:57:09;;;;;;;14.38;8.02;;;;;;;;;;4920765;29;20469;-75
2022/05/06 04:59:37;;;;;;;17.33;8.20;;;;;;;;;;4938397;29;20072;-75
2022/05/06 05:02:09;;;;;;;16.25;7.75;;;;;;;;;;4921546;29;20048;-75
2022/05/06 05:04:38;;;;;;;16.33;8.50;;;;;;;;;;4937029;29;20059;-75
2022/05/06 05:07:12;;;;;;;16.67;7.47;;;;;;;;;;4938514;29;20468;-75
2022/05/06 05:09:51;;;;;;;12.55;7.25;;;;;;;;;;4921218;29;20091;-75
2022/05/06 05:12:24;;;;;;;16.25;7.50;;;;;;;;;;4920601;29;20056;-76
2022/05/06 05:14:56;;;;;;;13.02;6.78;;;;;;;;;;4921216;29;20052;-75
2022/05/06 05:17:31;;;;;;;11.85;6.82;;;;;;;;;;4920914;29;20047;-75
2022/05/06 05:20:01;;;;;;;10.77;7.28;;;;;;;;;;4920976;29;20051;-75
2022/05/06 05:22:41;;;;;;;14.73;7.77;;;;;;;;;;4936833;29;20466;-75
2022/05/06 05:25:12;;;;;;;12.95;7.65;;;;;;;;;;4915309;29;20333;-76
2022/05/06 05:27:42;;;;;;;14.90;6.90;;;;;;;;;;4917844;29;20043;-76
2022/05/06 05:30:17;;;;;;;14.55;7.43;;;;;;;;;;4901746;29;20056;-77
2022/05/06 05:32:50;;;;;;;11.00;7.07;;;;;;;;;;4918023;29;20418;-77
2022/05/06 05:35:24;;;;;;;11.20;7.07;;;;;;;;;;4901638;29;20064;-77
2022/05/06 05:37:58;;;;;;;17.27;6.97;;;;;;;;;;4901657;29;20059;-77
2022/05/06 05:40:26;;;;;;;12.13;7.45;;;;;;;;;;4905272;29;20103;-78
2022/05/06 05:42:55;;;;;;;9.75;6.50;;;;;;;;;;4917683;29;20040;-76
2022/05/06 05:48:21;;;;;;;11.90;6.82;;;;;;;;;;4917369;29;20173;-79
2022/05/06 05:51:01;;;;;;;12.65;6.70;;;;;;;;;;4917354;29;20139;-78
2022/05/06 05:53:39;;;;;;;12.95;6.95;;;;;;;;;;4917080;29;20044;-78
2022/05/06 05:56:09;;;;;;;8.65;6.07;;;;;;;;;;4918266;29;20036;-78
2022/05/06 05:58:37;;;;;;;12.52;5.93;;;;;;;;;;4917274;29;20048;-78
2022/05/06 06:01:34;;;;;;;9.40;5.70;;;;;;;;;;4916910;29;20551;-77
2022/05/06 06:04:09;;;;;;;12.07;7.03;;;;;;;;;;4917417;29;20052;-80
2022/05/06 06:06:44;;;;;;;20.20;12.77;;;;;;;;;;4916916;29;20052;-80
2022/05/06 06:09:14;;;;;;;12.40;7.88;;;;;;;;;;4917220;29;20056;-78
2022/05/06 06:11:43;;;;;;;11.82;7.47;;;;;;;;;;4916541;29;20507;-78
2022/05/06 06:14:16;;;;;;;13.40;6.88;;;;;;;;;;4916677;29;20373;-76
2022/05/06 06:16:47;;;;;;;9.48;5.70;;;;;;;;;;4916693;29;20071;-77
2022/05/06 06:19:15;;;;;;;9.27;5.88;;;;;;;;;;4916583;29;20056;-77
2022/05/06 06:21:45;;;;;;;10.02;5.60;;;;;;;;;;4900830;29;20048;-78
2022/05/06 06:24:19;;;;;;;10.85;5.47;;;;;;;;;;4915380;29;20063;-75
2022/05/06 06:26:48;;;;;;;12.20;5.57;;;;;;;;;;4903203;29;20442;-75
2022/05/06 06:29:22;;;;;;;9.45;5.32;;;;;;;;;;4919987;29;20079;-76
2022/05/06 06:31:51;;;;;;;9.88;5.35;;;;;;;;;;4900781;29;20115;-77
2022/05/06 06:34:19;;;;;;;9.50;5.55;;;;;;;;;;4900663;29;20044;-76
2022/05/06 06:36:48;;;;;;;10.32;6.97;;;;;;;;;;4900266;29;20044;-77
2022/05/06 06:39:16;;;;;;;9.93;6.30;;;;;;;;;;4900562;29;20139;-77
2022/05/06 06:41:47;;;;;;;12.35;6.22;;;;;;;;;;4903907;29;20049;-77
2022/05/06 06:44:16;;;;;;;14.52;6.07;;;;;;;;;;4919197;29;20447;-76
2022/05/06 06:47:11;;;;;;;8.32;6.00;;;;;;;;;;4918594;29;20059;-75
2022/05/06 06:49:58;;;;;;;11.90;5.78;;;;;;;;;;4919057;29;20421;-75
2022/05/06 06:52:39;;;;;;;11.85;5.47;;;;;;;;;;4918684;29;20044;-75
2022/05/06 06:55:10;;;;;;;11.23;6.05;;;;;;;;;;4936336;29;20051;-75
2022/05/06 06:57:39;;;;;;;8.18;5.40;;;;;;;;;;4935768;29;20040;-75
2022/05/06 07:00:08;;;;;;;8.63;5.30;;;;;;;;;;4936197;29;20054;-76
2022/05/06 07:02:40;;;;;;;12.70;4.80;;;;;;;;;;4936104;29;20407;-75
2022/05/06 07:05:09;;;;;;;9.02;5.25;;;;;;;;;;4935735;29;20091;-75
2022/05/06 07:13:37;;;;;;;8.10;4.43;;;;;;;;;;4935949;29;20090;-75
2022/05/06 07:16:04;;;;;;;8.73;4.57;;;;;;;;;;4935579;29;20043;-75
2022/05/06 07:18:57;;;;;;;9.45;4.15;;;;;;;;;;4936334;29;20126;-75
2022/05/06 07:21:24;;;;;;;8.23;4.60;;;;;;;;;;4936045;29;20082;-75
2022/05/06 07:24:17;;;;;;;10.90;4.90;;;;;;;;;;4918483;29;20415;-75
2022/05/06 07:26:48;;;;;;;18.15;11.60;;;;;;;;;;4936049;29;20048;-75
2022/05/06 07:29:19;;;;;;;9.00;4.32;;;;;;;;;;4935907;29;20127;-75
2022/05/06 07:31:48;;;;;;;6.82;4.20;;;;;;;;;;4936316;29;20395;-75
2022/05/06 07:34:18;;;;;;;9.18;3.70;;;;;;;;;;4934505;29;20540;-75
2022/05/06 07:36:47;;;;;;;6.35;3.80;;;;;;;;;;4935648;29;20131;-75
2022/05/06 07:39:16;;;;;;;6.60;3.50;;;;;;;;;;4936088;29;20042;-75
2022/05/06 07:41:48;;;;;;;9.30;3.95;;;;;;;;;;4935845;29;20090;-75
2022/05/06 07:44:22;;;;;;;7.25;3.30;;;;;;;;;;4935908;29;20102;-75
2022/05/06 07:46:49;;;;;;;5.03;3.20;;;;;;;;;;4935704;29;20115;-74
2022/05/06 07:49:19;;;;;;;6.25;3.35;;;;;;;;;;4935896;29;20043;-75
2022/05/06 07:51:48;;;;;;;11.50;3.38;;;;;;;;;;4935663;29;20051;-74
2022/05/06 07:54:17;;;;;;;7.07;3.60;;;;;;;;;;4937700;29;20043;-75
2022/05/06 07:56:48;;;;;;;6.63;3.47;;;;;;;;;;4939461;29;20482;-75
2022/05/06 07:59:19;;;;;;;6.30;3.70;;;;;;;;;;4939138;29;20043;-75
2022/05/06 08:04:40;;;;;;;6.85;3.92;;;;;;;;;;4939412;29;20046;-74
2022/05/06 08:07:13;;;;;;;9.05;4.85;;;;;;;;;;4939599;29;20510;-75
2022/05/06 08:09:47;;;;;;;7.28;3.70;;;;;;;;;;4939144;29;20131;-75
2022/05/06 08:12:15;;;;;;;10.05;3.78;;;;;;;;;;4939289;29;20047;-75
2022/05/06 08:15:11;;;;;;;6.75;3.40;;;;;;;;;;4938900;29;20475;-75
2022/05/06 08:17:39;;;;;;;11.40;3.65;;;;;;;;;;4939216;29;20114;-74
2022/05/06 08:20:31;;;;;;;8.60;3.17;;;;;;;;;;4939080;29;20139;-74
2022/05/06 08:23:01;;;;;;;5.22;3.40;;;;;;;;;;4939403;29;20071;-74
2022/05/06 08:25:38;;;;;;;6.18;3.33;;;;;;;;;;4939390;29;20063;-74
2022/05/06 08:28:10;;;;;;;6.63;3.50;;;;;;;;;;4921739;29;20396;-74
2022/05/06 08:30:44;;;;;;;9.60;3.45;;;;;;;;;;4939055;29;20554;-74
2022/05/06 08:33:15;;;;;;;5.85;2.85;;;;;;;;;;4937675;29;20052;-73
2022/05/06 08:35:54;;;;;;;6.43;3.38;;;;;;;;;;4939235;29;20043;-75
2022/05/06 08:38:22;;;;;;;8.13;3.30;;;;;;;;;;4938826;29;20106;-75
2022/05/06 08:40:50;;;;;;;7.60;3.13;;;;;;;;;;4938209;29;20486;-75
2022/05/06 08:43:43;;;;;;;4.97;3.22;;;;;;;;;;4938925;29;20446;-74
2022/05/06 08:51:55;;;;;;;7.80;3.67;;;;;;;;;;4938328;29;20668;-73
2022/05/06 08:54:23;;;;;;;7.03;3.40;;;;;;;;;;4938699;29;20118;-74
2022/05/06 08:56:58;;;;;;;6.03;3.28;;;;;;;;;;4938767;29;20040;-73
2022/05/06 08:59:29;;;;;;;;;;;;;;;;;;4938636;29;20122;-74
2022/05/06 09:02:00;;;;;;;5.22;2.22;;;;;;;;;;4938521;29;20404;-74
2022/05/06 09:04:31;;;;;;;8.02;3.00;;;;;;;;;;4921491;29;20139;-74
2022/05/06 09:07:22;;;;;;;7.53;3.05;;;;;;;;;;4937940;29;20044;-73
2022/05/06 09:10:09;;;;;;;7.13;3.17;;;;;;;;;;4938555;29;20054;-74
2022/05/06 09:13:06;;;;;;;8.98;3.38;;;;;;;;;;4937734;29;20522;-75
2022/05/06 09:18:45;;;;;;;8.63;3.45;;;;;;;;;;4938202;29;20043;-73
2022/05/06 09:21:17;;;;;;;8.07;3.00;;;;;;;;;;4938134;29;20466;-74
2022/05/06 09:23:47;;;;;;;6.55;2.60;;;;;;;;;;4937800;29;20040;-74
2022/05/06 09:26:23;;;;;;;11.00;2.55;;;;;;;;;;4938004;29;20039;-74
2022/05/06 09:28:53;;;;;;;8.55;2.97;;;;;;;;;;4937638;29;20062;-75
2022/05/06 09:31:26;;;;;;;7.00;2.80;;;;;;;;;;4937711;29;20475;-74
2022/05/06 09:34:09;;;;;;;5.43;2.40;;;;;;;;;;4937768;29;20063;-74
2022/05/06 09:36:40;;;;;;;5.72;2.20;;;;;;;;;;4937639;29;20079;-75
2022/05/06 09:39:11;;;;;;;7.50;2.83;;;;;;;;;;4937847;29;20079;-75
2022/05/06 09:42:04;;;;;;;5.40;2.65;;;;;;;;;;4937650;29;20066;-74
2022/05/06 09:44:56;;;;;;;7.40;2.80;;;;;;;;;;4937657;29;20040;-74
2022/05/06 09:47:32;;;;;;;6.68;2.70;;;;;;;;;;4937739;29;20050;-75
2022/05/06 09:50:02;;;;;;;5.68;2.72;;;;;;;;;;4937252;29;20086;-75
2022/05/06 09:52:35;;;;;;;5.13;2.20;;;;;;;;;;4937583;29;20052;-75
2022/05/06 09:55:10;;;;;;;4.30;2.58;;;;;;;;;;4937227;29;20127;-73
2022/05/06 09:57:42;;;;;;;8.18;2.92;;;;;;;;;;4937460;29;20047;-75
2022/05/06 10:00:10;;;;;;;6.10;2.50;;;;;;;;;;4937566;29;20118;-76
2022/05/06 10:02:42;;;;;;;4.25;2.67;;;;;;;;;;4937182;29;20050;-75
2022/05/06 10:05:10;;;;;;;4.63;2.45;;;;;;;;;;4935031;29;20036;-75
2022/05/06 10:07:42;;;;;;;6.22;2.92;;;;;;;;;;4918202;29;20044;-75
2022/05/06 10:10:17;;;;;;;6.55;3.17;;;;;;;;;;4918154;29;20044;-75
2022/05/06 10:12:57;;;;;;;5.95;2.70;;;;;;;;;;4918985;29;20082;-75
2022/05/06 10:15:28;;;;;;;6.63;2.72;;;;;;;;;;4918237;29;20044;-75
2022/05/06 10:18:02;;;;;;;6.05;2.65;;;;;;;;;;4900561;29;20055;-76
2022/05/06 10:20:42;;;;;;;5.07;2.50;;;;;;;;;;4917921;29;20483;-73
2022/05/06 10:23:15;;;;;;;6.07;2.72;;;;;;;;;;4917922;29;20429;-76
2022/05/06 10:25:44;;;;;;;7.15;2.67;;;;;;;;;;4917987;29;20107;-76
2022/05/06 10:34:31;;;;;;;9.98;3.83;;;;;;;;;;4917737;29;20095;-76
2022/05/06 10:37:14;;;;;;;9.48;3.15;;;;;;;;;;4917397;29;20056;-75
2022/05/06 10:39:48;;;;;;;8.73;3.70;;;;;;;;;;4917657;29;20048;-76
2022/05/06 10:42:17;;;;;;;9.85;5.85;;;;;;;;;;4917562;29;20040;-76
2022/05/06 10:44:47;;;;;;;5.13;2.90;;;;;;;;;;4917495;29;20145;-75
2022/05/06 10:50:20;;;;;;;6.70;2.60;;;;;;;;;;4917145;29;20111;-75
2022/05/06 10:53:20;;;;;;;7.82;2.72;;;;;;;;;;4917754;29;20050;-76
2022/05/06 10:55:47;;;;;;;6.75;2.75;;;;;;;;;;4917665;29;20108;-75
2022/05/06 10:58:18;;;;;;;4.57;2.60;;;;;;;;;;4917743;29;20048;-76
2022/05/06 11:01:05;;;;;;;6.03;2.20;;;;;;;;;;4916920;29;20503;-75
2022/05/06 11:04:04;;;;;;;4.40;2.45;;;;;;;;;;4916989;29;20123;-76
2022/05/06 11:06:31;;;;;;;5.45;2.60;;;;;;;;;;4917232;29;20040;-76
2022/05/06 11:09:06;;;;;;;5.68;2.80;;;;;;;;;;4917334;29;20143;-75
2022/05/06 11:11:38;;;;;;;9.15;2.92;;;;;;;;;;4916857;29;20044;-75
2022/05/06 11:14:24;;;;;;;5.65;2.40;;;;;;;;;;4917454;29;20448;-76
2022/05/06 11:17:14;;;;;;;5.55;2.60;;;;;;;;;;4917238;29;20083;-75
2022/05/06 11:20:07;;;;;;;6.13;2.50;;;;;;;;;;4917515;29;20088;-75
2022/05/06 11:22:56;;;;;;;4.78;2.40;;;;;;;;;;4917107;29;20103;-75
2022/05/06 11:25:43;;;;;;;6.53;2.17;;;;;;;;;;4917081;29;20082;-75
2022/05/06 11:28:17;;;;;;;6.75;2.40;;;;;;;;;;4916773;29;20399;-75
2022/05/06 11:30:46;;;;;;;5.88;2.47;;;;;;;;;;4916498;29;20460;-75
2022/05/06 11:33:42;;;;;;;4.00;2.50;;;;;;;;;;4917184;29;20046;-76
2022/05/06 11:36:19;;;;;;;7.90;2.97;;;;;;;;;;4913629;29;20111;-75
2022/05/06 11:38:54;;;;;;;4.25;2.60;;;;;;;;;;4900050;29;20050;-76
2022/05/06 11:41:22;;;;;;;7.70;2.53;;;;;;;;;;4916531;29;20048;-76
2022/05/06 11:43:49;;;;;;;5.13;2.80;;;;;;;;;;4916767;29;20036;-76
2022/05/06 11:49:30;;;;;;;6.13;2.85;;;;;;;;;;4917000;29;20459;-74
2022/05/06 11:51:58;;;;;;;4.25;2.72;;;;;;;;;;4900040;29;20048;-74
2022/05/06 11:54:36;;;;;;;7.50;3.20;;;;;;;;;;4917795;29;20044;-75
2022/05/06 11:57:04;;;;;;;4.28;2.70;;;;;;;;;;4917056;29;20416;-75
2022/05/06 11:59:43;;;;;;;5.40;3.08;;;;;;;;;;4916711;29;20052;-75
2022/05/06 12:02:11;;;;;;;10.43;2.88;;;;;;;;;;4916480;29;20082;-75
2022/05/06 12:04:47;;;;;;;6.00;2.50;;;;;;;;;;4916542;29;20040;-75
2022/05/06 12:07:18;;;;;;;6.00;2.50;;;;;;;;;;4916467;29;20486;-75
2022/05/06 12:09:55;;;;;;;10.63;3.00;;;;;;;;;;4916607;29;20044;-75
2022/05/06 12:12:22;;;;;;;4.68;2.30;;;;;;;;;;4916791;29;20080;-75
2022/05/06 12:15:00;;;;;;;6.07;2.70;;;;;;;;;;4916997;29;20044;-75
2022/05/06 12:17:36;;;;;;;6.72;2.63;;;;;;;;;;4916214;29;20533;-75
2022/05/06 12:20:05;;;;;;;5.05;3.05;;;;;;;;;;4916341;29;20488;-74
2022/05/06 12:22:33;;;;;;;4.95;2.78;;;;;;;;;;4916649;29;20072;-75
2022/05/06 12:25:13;;;;;;;3.55;2.45;;;;;;;;;;4916604;29;20045;-75
2022/05/06 12:27:41;;;;;;;5.00;2.70;;;;;;;;;;4916776;29;20452;-75
2022/05/06 12:30:16;;;;;;;7.25;3.03;;;;;;;;;;4916291;29;20071;-74
2022/05/06 12:33:00;;;;;;;5.25;2.47;;;;;;;;;;4916092;29;20116;-74
2022/05/06 12:35:29;;;;;;;6.72;2.75;;;;;;;;;;4916662;29;20052;-73
2022/05/06 12:37:59;;;;;;;5.00;2.92;;;;;;;;;;4916576;29;20426;-73
2022/05/06 12:40:33;;;;;;;6.88;2.38;;;;;;;;;;4917006;29;20048;-73
2022/05/06 12:43:06;;;;;;;8.60;2.78;;;;;;;;;;4919794;29;20040;-75
2022/05/06 12:45:35;;;;;;;5.90;2.70;;;;;;;;;;4918450;29;20040;-76
2022/05/06 12:50:55;;;;;;;5.18;2.75;;;;;;;;;;4921313;29;20513;-76
2022/05/06 12:53:23;;;;;;;6.45;3.08;;;;;;;;;;4938342;29;20466;-76
2022/05/06 12:55:55;;;;;;;7.63;2.92;;;;;;;;;;4938750;29;20071;-74
2022/05/06 12:58:27;;;;;;;9.00;2.88;;;;;;;;;;4922183;29;20080;-76
2022/05/06 13:00:56;;;;;;;6.22;2.78;;;;;;;;;;4919328;29;20103;-76
2022/05/06 13:03:24;;;;;;;6.60;2.85;;;;;;;;;;4934199;29;20043;-77
2022/05/06 13:05:53;;;;;;;6.07;2.88;;;;;;;;;;4937675;29;20054;-80
2022/05/06 13:08:24;;;;;;;6.05;2.53;;;;;;;;;;4938226;29;20047;-75
2022/05/06 13:10:52;;;;;;;7.22;3.38;;;;;;;;;;4938349;29;20044;-77
2022/05/06 13:13:21;;;;;;;5.60;2.40;;;;;;;;;;4938390;29;20046;-78
2022/05/06 13:15:49;;;;;;;7.45;2.50;;;;;;;;;;4936887;29;20055;-79
2022/05/06 13:18:17;;;;;;;4.28;2.47;;;;;;;;;;4938057;29;20103;-78
2022/05/06 13:20:49;;;;;;;6.47;2.67;;;;;;;;;;4938047;29;20055;-78
2022/05/06 13:23:19;;;;;;;5.68;2.60;;;;;;;;;;4937717;29;20086;-76
2022/05/06 13:25:48;;;;;;;4.55;2.20;;;;;;;;;;4938344;29;20055;-80
2022/05/06 13:28:16;;;;;;;4.43;2.90;;;;;;;;;;4937668;29;20036;-77
2022/05/06 13:30:46;;;;;;;4.30;2.08;;;;;;;;;;4937742;29;20119;-76
2022/05/06 13:33:16;;;;;;;3.65;2.40;;;;;;;;;;4938037;29;20067;-76
2022/05/06 13:36:09;;;;;;;5.38;2.45;;;;;;;;;;4938329;29;20047;-75
2022/05/06 13:39:03;;;;;;;6.75;2.65;;;;;;;;;;4937948;29;20047;-76
2022/05/06 13:41:30;;;;;;;3.45;2.13;;;;;;;;;;4934088;29;20051;-77
2022/05/06 13:43:58;;;;;;;6.72;2.45;;;;;;;;;;4935650;29;20040;-77
2022/05/06 13:46:25;;;;;;;7.43;3.35;;;;;;;;;;4925350;29;20056;-80
2022/05/06 13:48:54;;;;;;;5.47;2.53;;;;;;;;;;4937006;29;20154;-75
2022/05/06 13:51:22;;;;;;;8.63;3.50;;;;;;;;;;4937228;29;20043;-75
2022/05/06 13:53:50;;;;;;;6.63;3.00;;;;;;;;;;4936877;29;20050;-75
2022/05/06 13:59:30;;;;;;;5.63;2.85;;;;;;;;;;4937536;29;20043;-75
2022/05/06 14:01:58;;;;;;;5.28;3.25;;;;;;;;;;4936337;29;20048;-75
2022/05/06 14:04:28;;;;;;;8.85;4.78;;;;;;;;;;4920466;29;20487;-77
2022/05/06 14:07:16;;;;;;;8.38;3.70;;;;;;;;;;4937099;29;20044;-77
2022/05/06 14:09:51;;;;;;;6.78;3.67;;;;;;;;;;4937256;29;20051;-76
2022/05/06 14:12:18;;;;;;;;;;;;;;;;;;4937442;29;20134;-77
2022/05/06 14:14:46;;;;;;;8.68;2.78;;;;;;;;;;4936935;29;19984;-75
2022/05/06 14:17:13;;;;;;;5.55;2.60;;;;;;;;;;4936816;29;20458;-76
2022/05/06 14:19:41;;;;;;;6.25;2.45;;;;;;;;;;4933351;29;20044;-76
2022/05/06 14:22:15;;;;;;;6.65;2.80;;;;;;;;;;4917622;29;20048;-76
2022/05/06 14:24:42;;;;;;;5.50;2.30;;;;;;;;;;4917655;29;20044;-76
2022/05/06 14:27:10;;;;;;;6.10;2.50;;;;;;;;;;4916826;29;20058;-77
2022/05/06 14:29:38;;;;;;;6.53;2.60;;;;;;;;;;4900527;29;20131;-76
2022/05/06 14:32:06;;;;;;;5.35;2.50;;;;;;;;;;4917873;29;20420;-77
2022/05/06 14:34:34;;;;;;;6.20;2.40;;;;;;;;;;4917583;29;20399;-78
2022/05/06 14:37:03;;;;;;;8.55;2.70;;;;;;;;;;4916262;29;20048;-78
2022/05/06 14:39:31;;;;;;;4.80;2.60;;;;;;;;;;4917872;29;20092;-77
2022/05/06 14:41:59;;;;;;;6.50;2.83;;;;;;;;;;4917321;29;20040;-78
2022/05/06 14:45:08;;;;;;;8.43;4.35;;;;;;;;;;4917422;29;20120;-76
2022/05/06 14:50:55;;;;;;;10.32;2.65;;;;;;;;;;4926038;29;20055;-77
2022/05/06 14:53:23;;;;;;;6.60;3.08;;;;;;;;;;4917279;29;20072;-76
2022/05/06 14:55:51;;;;;;;7.20;2.80;;;;;;;;;;4917124;29;20040;-76
2022/05/06 14:58:18;;;;;;;5.10;2.88;;;;;;;;;;4916999;29;20051;-77
2022/05/06 15:00:47;;;;;;;6.68;2.47;;;;;;;;;;4917206;29;20115;-76
2022/05/06 15:03:15;;;;;;;5.22;2.83;;;;;;;;;;4916946;29;20044;-76
2022/05/06 15:05:43;;;;;;;6.03;2.60;;;;;;;;;;4919700;29;20400;-77
2022/05/06 15:08:12;;;;;;;6.22;2.80;;;;;;;;;;4917095;29;20040;-77
2022/05/06 15:10:40;;;;;;;5.43;2.72;;;;;;;;;;4917039;29;20095;-77
2022/05/06 15:13:07;;;;;;;5.97;3.08;;;;;;;;;;4917056;29;20056;-77
2022/05/06 15:15:39;;;;;;;7.30;2.53;;;;;;;;;;4917071;29;20040;-76
2022/05/06 15:20:53;;;;;;;7.20;2.40;;;;;;;;;;4916848;29;20056;-71
2022/05/06 15:23:22;;;;;;;5.35;2.60;;;;;;;;;;4916833;29;20040;-70
2022/05/06 15:25:50;;;;;;;6.03;2.60;;;;;;;;;;4916646;29;20037;-70
2022/05/06 15:28:17;;;;;;;4.88;2.40;;;;;;;;;;4916672;29;20123;-70
2022/05/06 15:30:49;;;;;;;6.78;2.67;;;;;;;;;;4916721;29;20051;-70
2022/05/06 15:33:16;;;;;;;8.98;2.97;;;;;;;;;;4917225;29;20040;-70
2022/05/06 15:35:44;;;;;;;4.18;2.50;;;;;;;;;;4919048;29;20050;-70
2022/05/06 15:38:11;;;;;;;7.07;2.70;;;;;;;;;;4915773;29;20468;-71
2022/05/06 15:40:39;;;;;;;5.50;2.35;;;;;;;;;;4923209;29;20048;-71
2022/05/06 15:43:07;;;;;;;8.65;2.70;;;;;;;;;;4934673;29;20046;-71
2022/05/06 15:45:39;;;;;;;5.95;3.30;;;;;;;;;;4930916;29;20036;-71
2022/05/06 15:48:07;;;;;;;7.15;3.72;;;;;;;;;;4918249;29;20100;-71
2022/05/06 15:50:34;;;;;;;11.30;4.47;;;;;;;;;;4923456;29;20113;-69
2022/05/06 15:53:02;;;;;;;11.77;4.70;;;;;;;;;;4933877;29;20039;-69
2022/05/06 15:55:33;;;;;;;9.00;3.17;;;;;;;;;;4935770;29;20139;-69
2022/05/06 15:58:01;;;;;;;7.05;3.10;;;;;;;;;;4935476;29;20043;-69
2022/05/06 16:00:29;;;;;;;9.88;3.33;;;;;;;;;;4918442;29;20044;-70
2022/05/06 16:02:57;;;;;;;7.10;2.97;;;;;;;;;;4935217;29;20086;-69
2022/05/06 16:05:26;;;;;;;9.32;3.58;;;;;;;;;;4935701;29;20495;-70
2022/05/06 16:07:53;;;;;;;11.25;4.80;;;;;;;;;;4935307;29;20044;-70
2022/05/06 16:10:22;;;;;;;10.82;3.58;;;;;;;;;;4935507;29;20040;-70
2022/05/06 16:12:51;;;;;;;10.70;5.50;;;;;;;;;;4935410;29;20466;-70
2022/05/06 16:15:21;;;;;;;7.82;3.45;;;;;;;;;;4936390;29;20530;-71
2022/05/06 16:17:54;;;;;;;8.15;3.53;;;;;;;;;;4939156;29;20060;-76
2022/05/06 16:20:25;;;;;;;9.88;4.53;;;;;;;;;;4939337;29;20131;-72
2022/05/06 16:22:53;;;;;;;11.35;5.10;;;;;;;;;;4939066;29;20160;-72
2022/05/06 16:25:21;;;;;;;15.63;9.30;;;;;;;;;;4938716;29;20383;-73
2022/05/06 16:27:51;;;;;;;15.18;8.98;;;;;;;;;;4938922;29;20050;-73
2022/05/06 16:30:18;;;;;;;8.80;4.97;;;;;;;;;;4938883;29;20046;-73